sensor_id;sensor_type;location;lat;lon;timestamp;P1;durP1;ratioP1;P2;durP2;ratioP2
19869;SDS011;10097;50.862;4.696;2022-11-04T00:01:39;5.90;;;1.33;;
19869;SDS011;10097;50.862;4.696;2022-11-04T00:04:06;6.73;;;2.00;;
19869;SDS011;10097;50.862;4.696;2022-11-04T00:06:33;9.47;;;1.53;;
19869;SDS011;10097;50.862;4.696;2022-11-04T00:08:58;7.03;;;1.33;;
19869;SDS011;10097;50.862;4.696;2022-11-04T00:11:25;6.43;;;1.80;;
19869;SDS011;10097;50.862;4.696;2022-11-04T00:14:10;4.33;;;1.23;;
19869;SDS011;10097;50.862;4.696;2022-11-04T00:16:37;9.53;;;1.93;;
19869;SDS011;10097;50.862;4.696;2022-11-04T00:19:22;8.53;;;2.03;;
19869;SDS011;10097;50.862;4.696;2022-11-04T00:21:48;6.40;;;1.37;;
19869;SDS011;10097;50.862;4.696;2022-11-04T00:24:32;10.40;;;1.80;;
19869;SDS011;10097;50.862;4.696;2022-11-04T00:27:08;8.50;;;1.87;;
19869;SDS011;10097;50.862;4.696;2022-11-04T00:30:10;7.57;;;1.60;;
19869;SDS011;10097;50.862;4.696;2022-11-04T00:32:36;6.67;;;1.50;;
19869;SDS011;10097;50.862;4.696;2022-11-04T00:35:20;4.90;;;1.50;;
19869;SDS011;10097;50.862;4.696;2022-11-04T00:37:46;12.07;;;2.10;;
19869;SDS011;10097;50.862;4.696;2022-11-04T00:40:12;11.33;;;1.60;;
19869;SDS011;10097;50.862;4.696;2022-11-04T00:42:39;6.50;;;1.57;;
19869;SDS011;10097;50.862;4.696;2022-11-04T00:45:08;8.30;;;1.57;;
19869;SDS011;10097;50.862;4.696;2022-11-04T00:47:33;8.83;;;1.80;;
19869;SDS011;10097;50.862;4.696;2022-11-04T00:49:59;10.70;;;2.13;;
19869;SDS011;10097;50.862;4.696;2022-11-04T00:52:25;7.07;;;1.60;;
19869;SDS011;10097;50.862;4.696;2022-11-04T00:54:50;8.63;;;1.60;;
19869;SDS011;10097;50.862;4.696;2022-11-04T00:57:16;7.90;;;1.73;;
19869;SDS011;10097;50.862;4.696;2022-11-04T00:59:42;14.40;;;2.10;;
19869;SDS011;10097;50.862;4.696;2022-11-04T01:02:09;7.60;;;1.40;;
19869;SDS011;10097;50.862;4.696;2022-11-04T01:04:36;9.23;;;1.83;;
19869;SDS011;10097;50.862;4.696;2022-11-04T01:07:01;13.00;;;2.23;;
19869;SDS011;10097;50.862;4.696;2022-11-04T01:09:27;10.90;;;1.87;;
19869;SDS011;10097;50.862;4.696;2022-11-04T01:11:53;6.47;;;1.67;;
19869;SDS011;10097;50.862;4.696;2022-11-04T01:14:19;7.47;;;1.43;;
19869;SDS011;10097;50.862;4.696;2022-11-04T01:16:44;11.50;;;1.90;;
19869;SDS011;10097;50.862;4.696;2022-11-04T01:19:10;10.43;;;1.60;;
19869;SDS011;10097;50.862;4.696;2022-11-04T01:21:36;10.47;;;1.80;;
19869;SDS011;10097;50.862;4.696;2022-11-04T01:24:02;9.37;;;1.53;;
19869;SDS011;10097;50.862;4.696;2022-11-04T01:26:29;16.67;;;1.80;;
19869;SDS011;10097;50.862;4.696;2022-11-04T01:28:56;7.67;;;2.20;;
19869;SDS011;10097;50.862;4.696;2022-11-04T01:31:23;10.80;;;1.40;;
19869;SDS011;10097;50.862;4.696;2022-11-04T01:33:54;11.47;;;1.30;;
19869;SDS011;10097;50.862;4.696;2022-11-04T01:36:21;11.20;;;1.80;;
19869;SDS011;10097;50.862;4.696;2022-11-04T01:38:47;10.80;;;1.60;;
19869;SDS011;10097;50.862;4.696;2022-11-04T01:41:16;10.40;;;1.77;;
19869;SDS011;10097;50.862;4.696;2022-11-04T01:49:30;12.40;;;1.50;;
19869;SDS011;10097;50.862;4.696;2022-11-04T01:52:04;10.73;;;1.60;;
19869;SDS011;10097;50.862;4.696;2022-11-04T01:54:33;12.27;;;1.87;;
19869;SDS011;10097;50.862;4.696;2022-11-04T01:57:00;11.77;;;2.20;;
19869;SDS011;10097;50.862;4.696;2022-11-04T01:59:29;8.67;;;1.47;;
19869;SDS011;10097;50.862;4.696;2022-11-04T02:02:01;12.83;;;1.87;;
19869;SDS011;10097;50.862;4.696;2022-11-04T02:04:27;17.30;;;3.73;;
19869;SDS011;10097;50.862;4.696;2022-11-04T02:06:58;8.53;;;1.80;;
19869;SDS011;10097;50.862;4.696;2022-11-04T02:09:27;14.20;;;1.90;;
19869;SDS011;10097;50.862;4.696;2022-11-04T02:11:54;9.47;;;1.93;;
19869;SDS011;10097;50.862;4.696;2022-11-04T02:14:39;10.83;;;1.90;;
19869;SDS011;10097;50.862;4.696;2022-11-04T02:25:03;9.00;;;2.10;;
19869;SDS011;10097;50.862;4.696;2022-11-04T02:30:34;12.77;;;3.07;;
19869;SDS011;10097;50.862;4.696;2022-11-04T02:33:08;10.80;;;1.87;;
19869;SDS011;10097;50.862;4.696;2022-11-04T02:47:23;14.40;;;2.43;;
19869;SDS011;10097;50.862;4.696;2022-11-04T02:52:04;9.83;;;2.50;;
19869;SDS011;10097;50.862;4.696;2022-11-04T02:54:35;7.97;;;1.77;;
19869;SDS011;10097;50.862;4.696;2022-11-04T02:57:07;8.83;;;1.90;;
19869;SDS011;10097;50.862;4.696;2022-11-04T02:59:43;12.37;;;2.00;;
19869;SDS011;10097;50.862;4.696;2022-11-04T03:02:15;10.80;;;2.07;;
19869;SDS011;10097;50.862;4.696;2022-11-04T03:04:47;14.10;;;2.43;;
19869;SDS011;10097;50.862;4.696;2022-11-04T03:07:16;11.70;;;2.37;;
19869;SDS011;10097;50.862;4.696;2022-11-04T03:09:57;10.63;;;2.27;;
19869;SDS011;10097;50.862;4.696;2022-11-04T03:12:27;13.43;;;2.27;;
19869;SDS011;10097;50.862;4.696;2022-11-04T03:15:00;6.30;;;1.50;;
19869;SDS011;10097;50.862;4.696;2022-11-04T03:17:35;14.80;;;2.30;;
19869;SDS011;10097;50.862;4.696;2022-11-04T03:20:24;14.60;;;2.10;;
19869;SDS011;10097;50.862;4.696;2022-11-04T03:22:52;13.40;;;2.30;;
19869;SDS011;10097;50.862;4.696;2022-11-04T03:25:19;8.87;;;1.87;;
19869;SDS011;10097;50.862;4.696;2022-11-04T03:27:52;13.20;;;2.00;;
19869;SDS011;10097;50.862;4.696;2022-11-04T03:30:25;14.40;;;2.57;;
19869;SDS011;10097;50.862;4.696;2022-11-04T03:35:38;8.97;;;2.20;;
19869;SDS011;10097;50.862;4.696;2022-11-04T03:38:04;13.33;;;2.73;;
19869;SDS011;10097;50.862;4.696;2022-11-04T03:40:30;12.93;;;2.37;;
19869;SDS011;10097;50.862;4.696;2022-11-04T03:42:59;14.23;;;2.03;;
19869;SDS011;10097;50.862;4.696;2022-11-04T03:45:39;16.30;;;3.03;;
19869;SDS011;10097;50.862;4.696;2022-11-04T03:48:06;12.00;;;2.07;;
19869;SDS011;10097;50.862;4.696;2022-11-04T03:50:37;12.93;;;2.60;;
19869;SDS011;10097;50.862;4.696;2022-11-04T03:53:07;13.37;;;2.00;;
19869;SDS011;10097;50.862;4.696;2022-11-04T03:55:50;13.40;;;2.70;;
19869;SDS011;10097;50.862;4.696;2022-11-04T04:01:25;12.83;;;2.20;;
19869;SDS011;10097;50.862;4.696;2022-11-04T04:04:07;11.97;;;2.33;;
19869;SDS011;10097;50.862;4.696;2022-11-04T04:06:56;13.87;;;2.50;;
19869;SDS011;10097;50.862;4.696;2022-11-04T04:09:39;8.93;;;2.67;;
19869;SDS011;10097;50.862;4.696;2022-11-04T04:12:12;9.70;;;2.23;;
19869;SDS011;10097;50.862;4.696;2022-11-04T04:14:41;11.93;;;2.37;;
19869;SDS011;10097;50.862;4.696;2022-11-04T04:19:44;10.40;;;2.57;;
19869;SDS011;10097;50.862;4.696;2022-11-04T04:22:36;12.37;;;2.50;;
19869;SDS011;10097;50.862;4.696;2022-11-04T04:25:13;13.03;;;2.43;;
19869;SDS011;10097;50.862;4.696;2022-11-04T04:27:59;8.23;;;1.87;;
19869;SDS011;10097;50.862;4.696;2022-11-04T04:30:26;11.00;;;1.80;;
19869;SDS011;10097;50.862;4.696;2022-11-04T04:32:54;10.93;;;2.30;;
19869;SDS011;10097;50.862;4.696;2022-11-04T04:35:28;10.90;;;2.10;;
19869;SDS011;10097;50.862;4.696;2022-11-04T04:38:29;13.70;;;2.33;;
19869;SDS011;10097;50.862;4.696;2022-11-04T04:41:24;11.80;;;2.07;;
19869;SDS011;10097;50.862;4.696;2022-11-04T04:44:12;13.27;;;2.07;;
19869;SDS011;10097;50.862;4.696;2022-11-04T04:47:08;11.73;;;2.03;;
19869;SDS011;10097;50.862;4.696;2022-11-04T04:49:36;12.30;;;1.73;;
19869;SDS011;10097;50.862;4.696;2022-11-04T04:52:12;9.27;;;1.70;;
19869;SDS011;10097;50.862;4.696;2022-11-04T04:54:38;6.83;;;1.67;;
19869;SDS011;10097;50.862;4.696;2022-11-04T04:57:03;10.50;;;2.00;;
19869;SDS011;10097;50.862;4.696;2022-11-04T04:59:29;8.57;;;1.63;;
19869;SDS011;10097;50.862;4.696;2022-11-04T05:01:55;9.70;;;1.90;;
19869;SDS011;10097;50.862;4.696;2022-11-04T05:04:20;9.70;;;1.83;;
19869;SDS011;10097;50.862;4.696;2022-11-04T05:06:46;6.27;;;1.73;;
19869;SDS011;10097;50.862;4.696;2022-11-04T05:09:11;12.67;;;2.60;;
19869;SDS011;10097;50.862;4.696;2022-11-04T05:11:37;7.80;;;1.47;;
19869;SDS011;10097;50.862;4.696;2022-11-04T05:14:03;11.27;;;1.77;;
19869;SDS011;10097;50.862;4.696;2022-11-04T05:16:28;10.17;;;1.83;;
19869;SDS011;10097;50.862;4.696;2022-11-04T05:18:54;6.87;;;1.67;;
19869;SDS011;10097;50.862;4.696;2022-11-04T05:21:19;10.93;;;1.50;;
19869;SDS011;10097;50.862;4.696;2022-11-04T05:23:45;15.37;;;1.90;;
19869;SDS011;10097;50.862;4.696;2022-11-04T05:26:11;9.17;;;1.50;;
19869;SDS011;10097;50.862;4.696;2022-11-04T05:28:37;12.60;;;2.00;;
19869;SDS011;10097;50.862;4.696;2022-11-04T05:31:04;10.17;;;1.30;;
19869;SDS011;10097;50.862;4.696;2022-11-04T05:33:30;8.13;;;1.73;;
19869;SDS011;10097;50.862;4.696;2022-11-04T05:36:06;10.93;;;2.00;;
19869;SDS011;10097;50.862;4.696;2022-11-04T05:38:33;6.93;;;1.77;;
19869;SDS011;10097;50.862;4.696;2022-11-04T05:40:58;11.27;;;1.67;;
19869;SDS011;10097;50.862;4.696;2022-11-04T05:43:24;11.73;;;2.00;;
19869;SDS011;10097;50.862;4.696;2022-11-04T05:45:49;9.27;;;1.67;;
19869;SDS011;10097;50.862;4.696;2022-11-04T05:48:15;7.93;;;1.63;;
19869;SDS011;10097;50.862;4.696;2022-11-04T05:50:41;11.73;;;1.97;;
19869;SDS011;10097;50.862;4.696;2022-11-04T05:53:06;10.33;;;2.13;;
19869;SDS011;10097;50.862;4.696;2022-11-04T05:55:32;11.77;;;1.90;;
19869;SDS011;10097;50.862;4.696;2022-11-04T05:57:58;13.10;;;2.40;;
19869;SDS011;10097;50.862;4.696;2022-11-04T06:00:24;11.57;;;2.00;;
19869;SDS011;10097;50.862;4.696;2022-11-04T06:02:51;11.53;;;2.37;;
19869;SDS011;10097;50.862;4.696;2022-11-04T06:05:17;17.33;;;3.77;;
19869;SDS011;10097;50.862;4.696;2022-11-04T06:07:43;12.47;;;2.70;;
19869;SDS011;10097;50.862;4.696;2022-11-04T06:10:09;11.07;;;2.47;;
19869;SDS011;10097;50.862;4.696;2022-11-04T06:12:35;10.63;;;2.50;;
19869;SDS011;10097;50.862;4.696;2022-11-04T06:15:00;12.53;;;2.90;;
19869;SDS011;10097;50.862;4.696;2022-11-04T06:17:26;17.17;;;2.83;;
19869;SDS011;10097;50.862;4.696;2022-11-04T06:19:51;11.33;;;2.60;;
19869;SDS011;10097;50.862;4.696;2022-11-04T06:22:18;10.07;;;2.97;;
19869;SDS011;10097;50.862;4.696;2022-11-04T06:24:44;11.00;;;2.30;;
19869;SDS011;10097;50.862;4.696;2022-11-04T06:27:10;16.33;;;2.80;;
19869;SDS011;10097;50.862;4.696;2022-11-04T06:29:36;12.30;;;2.50;;
19869;SDS011;10097;50.862;4.696;2022-11-04T06:32:06;17.27;;;2.90;;
19869;SDS011;10097;50.862;4.696;2022-11-04T06:34:32;8.53;;;2.03;;
19869;SDS011;10097;50.862;4.696;2022-11-04T06:36:58;13.10;;;2.80;;
19869;SDS011;10097;50.862;4.696;2022-11-04T06:39:23;13.07;;;2.40;;
19869;SDS011;10097;50.862;4.696;2022-11-04T06:41:49;15.77;;;2.80;;
19869;SDS011;10097;50.862;4.696;2022-11-04T06:44:14;8.83;;;2.40;;
19869;SDS011;10097;50.862;4.696;2022-11-04T06:46:41;12.10;;;2.80;;
19869;SDS011;10097;50.862;4.696;2022-11-04T06:49:14;13.53;;;2.67;;
19869;SDS011;10097;50.862;4.696;2022-11-04T06:51:44;12.10;;;2.97;;
19869;SDS011;10097;50.862;4.696;2022-11-04T06:54:13;14.73;;;3.67;;
19869;SDS011;10097;50.862;4.696;2022-11-04T06:56:40;9.40;;;2.83;;
19869;SDS011;10097;50.862;4.696;2022-11-04T06:59:05;14.27;;;2.87;;
19869;SDS011;10097;50.862;4.696;2022-11-04T07:01:32;15.47;;;2.90;;
19869;SDS011;10097;50.862;4.696;2022-11-04T07:03:59;15.37;;;2.70;;
19869;SDS011;10097;50.862;4.696;2022-11-04T07:06:27;11.50;;;2.70;;
19869;SDS011;10097;50.862;4.696;2022-11-04T07:08:55;17.57;;;3.23;;
19869;SDS011;10097;50.862;4.696;2022-11-04T07:11:24;13.70;;;2.63;;
19869;SDS011;10097;50.862;4.696;2022-11-04T07:13:51;13.77;;;3.23;;
19869;SDS011;10097;50.862;4.696;2022-11-04T07:16:17;10.33;;;2.70;;
19869;SDS011;10097;50.862;4.696;2022-11-04T07:18:43;13.70;;;2.77;;
19869;SDS011;10097;50.862;4.696;2022-11-04T07:21:09;15.90;;;3.20;;
19869;SDS011;10097;50.862;4.696;2022-11-04T07:23:36;12.13;;;2.90;;
19869;SDS011;10097;50.862;4.696;2022-11-04T07:26:03;13.90;;;3.13;;
19869;SDS011;10097;50.862;4.696;2022-11-04T07:28:30;15.37;;;3.37;;
19869;SDS011;10097;50.862;4.696;2022-11-04T07:30:57;13.20;;;3.10;;
19869;SDS011;10097;50.862;4.696;2022-11-04T07:33:24;16.27;;;2.90;;
19869;SDS011;10097;50.862;4.696;2022-11-04T07:35:51;19.50;;;3.30;;
19869;SDS011;10097;50.862;4.696;2022-11-04T07:38:17;11.97;;;3.80;;
19869;SDS011;10097;50.862;4.696;2022-11-04T07:40:44;21.83;;;3.80;;
19869;SDS011;10097;50.862;4.696;2022-11-04T07:43:09;20.37;;;3.77;;
19869;SDS011;10097;50.862;4.696;2022-11-04T07:45:35;12.23;;;4.50;;
19869;SDS011;10097;50.862;4.696;2022-11-04T07:48:01;13.07;;;3.80;;
19869;SDS011;10097;50.862;4.696;2022-11-04T07:50:27;20.77;;;3.50;;
19869;SDS011;10097;50.862;4.696;2022-11-04T07:52:52;11.63;;;3.37;;
19869;SDS011;10097;50.862;4.696;2022-11-04T07:55:18;12.07;;;3.00;;
19869;SDS011;10097;50.862;4.696;2022-11-04T07:57:44;12.97;;;3.50;;
19869;SDS011;10097;50.862;4.696;2022-11-04T08:00:11;12.73;;;3.50;;
19869;SDS011;10097;50.862;4.696;2022-11-04T08:02:39;13.63;;;3.63;;
19869;SDS011;10097;50.862;4.696;2022-11-04T08:05:06;15.20;;;3.90;;
19869;SDS011;10097;50.862;4.696;2022-11-04T08:07:32;13.17;;;3.50;;
19869;SDS011;10097;50.862;4.696;2022-11-04T08:09:57;8.93;;;3.63;;
19869;SDS011;10097;50.862;4.696;2022-11-04T08:12:23;10.57;;;3.30;;
19869;SDS011;10097;50.862;4.696;2022-11-04T08:14:49;14.67;;;3.77;;
19869;SDS011;10097;50.862;4.696;2022-11-04T08:17:33;12.80;;;3.73;;
19869;SDS011;10097;50.862;4.696;2022-11-04T08:19:59;9.27;;;3.00;;
19869;SDS011;10097;50.862;4.696;2022-11-04T08:22:24;11.30;;;3.50;;
19869;SDS011;10097;50.862;4.696;2022-11-04T08:24:50;18.00;;;3.47;;
19869;SDS011;10097;50.862;4.696;2022-11-04T08:27:15;13.30;;;3.33;;
19869;SDS011;10097;50.862;4.696;2022-11-04T08:29:41;21.27;;;4.40;;
19869;SDS011;10097;50.862;4.696;2022-11-04T08:32:07;15.80;;;4.93;;
19869;SDS011;10097;50.862;4.696;2022-11-04T08:34:32;16.13;;;4.30;;
19869;SDS011;10097;50.862;4.696;2022-11-04T08:36:59;17.33;;;4.47;;
19869;SDS011;10097;50.862;4.696;2022-11-04T08:39:25;13.47;;;3.10;;
19869;SDS011;10097;50.862;4.696;2022-11-04T08:41:51;11.30;;;2.90;;
19869;SDS011;10097;50.862;4.696;2022-11-04T08:44:17;14.83;;;3.60;;
19869;SDS011;10097;50.862;4.696;2022-11-04T08:46:43;12.53;;;3.30;;
19869;SDS011;10097;50.862;4.696;2022-11-04T08:49:09;18.00;;;3.87;;
19869;SDS011;10097;50.862;4.696;2022-11-04T08:51:37;11.17;;;3.40;;
19869;SDS011;10097;50.862;4.696;2022-11-04T08:54:05;13.70;;;3.50;;
19869;SDS011;10097;50.862;4.696;2022-11-04T08:56:31;12.33;;;3.13;;
19869;SDS011;10097;50.862;4.696;2022-11-04T08:59:02;12.70;;;3.70;;
19869;SDS011;10097;50.862;4.696;2022-11-04T09:01:29;15.50;;;3.67;;
19869;SDS011;10097;50.862;4.696;2022-11-04T09:03:56;15.50;;;3.73;;
19869;SDS011;10097;50.862;4.696;2022-11-04T09:06:23;12.33;;;3.20;;
19869;SDS011;10097;50.862;4.696;2022-11-04T09:08:58;12.03;;;3.13;;
19869;SDS011;10097;50.862;4.696;2022-11-04T09:11:28;13.07;;;3.70;;
19869;SDS011;10097;50.862;4.696;2022-11-04T09:13:57;11.53;;;3.10;;
19869;SDS011;10097;50.862;4.696;2022-11-04T09:16:25;11.27;;;3.10;;
19869;SDS011;10097;50.862;4.696;2022-11-04T09:18:51;11.63;;;3.00;;
19869;SDS011;10097;50.862;4.696;2022-11-04T09:21:16;9.03;;;2.93;;
19869;SDS011;10097;50.862;4.696;2022-11-04T09:23:42;13.33;;;3.60;;
19869;SDS011;10097;50.862;4.696;2022-11-04T09:26:10;13.27;;;4.13;;
19869;SDS011;10097;50.862;4.696;2022-11-04T09:28:37;15.13;;;3.90;;
19869;SDS011;10097;50.862;4.696;2022-11-04T09:31:05;13.07;;;3.30;;
19869;SDS011;10097;50.862;4.696;2022-11-04T09:33:38;14.87;;;4.20;;
19869;SDS011;10097;50.862;4.696;2022-11-04T09:36:04;12.07;;;3.00;;
19869;SDS011;10097;50.862;4.696;2022-11-04T09:38:33;12.53;;;3.60;;
19869;SDS011;10097;50.862;4.696;2022-11-04T09:40:59;14.00;;;3.73;;
19869;SDS011;10097;50.862;4.696;2022-11-04T09:43:35;13.50;;;3.50;;
19869;SDS011;10097;50.862;4.696;2022-11-04T09:46:07;11.30;;;3.57;;
19869;SDS011;10097;50.862;4.696;2022-11-04T09:48:37;13.90;;;3.90;;
19869;SDS011;10097;50.862;4.696;2022-11-04T09:51:19;12.93;;;4.03;;
19869;SDS011;10097;50.862;4.696;2022-11-04T09:53:54;16.87;;;4.57;;
19869;SDS011;10097;50.862;4.696;2022-11-04T09:56:28;14.00;;;3.33;;
19869;SDS011;10097;50.862;4.696;2022-11-04T09:59:00;15.83;;;3.57;;
19869;SDS011;10097;50.862;4.696;2022-11-04T10:01:39;10.70;;;2.63;;
19869;SDS011;10097;50.862;4.696;2022-11-04T10:25:31;15.33;;;2.53;;
19869;SDS011;10097;50.862;4.696;2022-11-04T10:28:06;9.07;;;1.70;;
19869;SDS011;10097;50.862;4.696;2022-11-04T10:30:39;14.27;;;2.13;;
19869;SDS011;10097;50.862;4.696;2022-11-04T10:33:11;5.67;;;1.70;;
19869;SDS011;10097;50.862;4.696;2022-11-04T10:35:57;10.23;;;2.07;;
19869;SDS011;10097;50.862;4.696;2022-11-04T10:38:46;11.20;;;2.10;;
19869;SDS011;10097;50.862;4.696;2022-11-04T10:52:04;11.53;;;2.30;;
19869;SDS011;10097;50.862;4.696;2022-11-04T10:54:40;11.40;;;2.77;;
19869;SDS011;10097;50.862;4.696;2022-11-04T10:57:07;9.40;;;2.33;;
19869;SDS011;10097;50.862;4.696;2022-11-04T11:02:16;8.33;;;2.57;;
19869;SDS011;10097;50.862;4.696;2022-11-04T11:04:42;17.30;;;4.10;;
19869;SDS011;10097;50.862;4.696;2022-11-04T11:07:11;11.73;;;2.93;;
19869;SDS011;10097;50.862;4.696;2022-11-04T11:12:20;14.13;;;2.93;;
19869;SDS011;10097;50.862;4.696;2022-11-04T11:14:54;11.30;;;2.70;;
19869;SDS011;10097;50.862;4.696;2022-11-04T11:17:23;14.10;;;2.97;;
19869;SDS011;10097;50.862;4.696;2022-11-04T11:22:44;11.30;;;3.30;;
19869;SDS011;10097;50.862;4.696;2022-11-04T11:25:32;16.37;;;3.60;;
19869;SDS011;10097;50.862;4.696;2022-11-04T11:28:08;14.93;;;3.63;;
19869;SDS011;10097;50.862;4.696;2022-11-04T11:33:15;12.60;;;3.17;;
19869;SDS011;10097;50.862;4.696;2022-11-04T11:35:45;11.07;;;3.87;;
19869;SDS011;10097;50.862;4.696;2022-11-04T11:38:21;10.03;;;3.67;;
19869;SDS011;10097;50.862;4.696;2022-11-04T11:40:47;14.10;;;3.77;;
19869;SDS011;10097;50.862;4.696;2022-11-04T11:43:35;15.20;;;4.23;;
19869;SDS011;10097;50.862;4.696;2022-11-04T11:46:06;17.20;;;3.83;;
19869;SDS011;10097;50.862;4.696;2022-11-04T11:48:44;15.07;;;4.20;;
19869;SDS011;10097;50.862;4.696;2022-11-04T11:51:21;59.23;;;27.17;;
19869;SDS011;10097;50.862;4.696;2022-11-04T11:54:34;93.70;;;38.50;;
19869;SDS011;10097;50.862;4.696;2022-11-04T11:56:38;18.57;;;8.60;;
19869;SDS011;10097;50.862;4.696;2022-11-04T11:59:13;14.80;;;4.57;;
19869;SDS011;10097;50.862;4.696;2022-11-04T12:02:13;12.57;;;4.17;;
19869;SDS011;10097;50.862;4.696;2022-11-04T12:04:44;11.57;;;3.97;;
19869;SDS011;10097;50.862;4.696;2022-11-04T12:07:22;12.23;;;3.37;;
19869;SDS011;10097;50.862;4.696;2022-11-04T12:10:00;15.60;;;3.63;;
19869;SDS011;10097;50.862;4.696;2022-11-04T12:18:38;11.77;;;4.00;;
19869;SDS011;10097;50.862;4.696;2022-11-04T12:22:21;11.13;;;3.43;;
19869;SDS011;10097;50.862;4.696;2022-11-04T12:43:47;17.43;;;5.70;;
19869;SDS011;10097;50.862;4.696;2022-11-04T12:49:44;17.37;;;6.27;;
19869;SDS011;10097;50.862;4.696;2022-11-04T12:57:31;17.23;;;7.03;;
19869;SDS011;10097;50.862;4.696;2022-11-04T13:00:06;19.00;;;7.53;;
19869;SDS011;10097;50.862;4.696;2022-11-04T13:02:48;14.93;;;6.73;;
19869;SDS011;10097;50.862;4.696;2022-11-04T13:08:16;21.57;;;7.07;;
19869;SDS011;10097;50.862;4.696;2022-11-04T13:13:52;22.43;;;7.67;;
19869;SDS011;10097;50.862;4.696;2022-11-04T13:16:40;16.88;;;7.65;;
19869;SDS011;10097;50.862;4.696;2022-11-04T13:22:19;20.13;;;8.57;;
19869;SDS011;10097;50.862;4.696;2022-11-04T13:24:53;17.73;;;9.77;;
19869;SDS011;10097;50.862;4.696;2022-11-04T13:27:30;19.70;;;9.80;;
19869;SDS011;10097;50.862;4.696;2022-11-04T13:38:42;23.27;;;9.97;;
19869;SDS011;10097;50.862;4.696;2022-11-04T13:41:15;21.27;;;10.17;;
19869;SDS011;10097;50.862;4.696;2022-11-04T13:44:10;20.93;;;9.37;;
19869;SDS011;10097;50.862;4.696;2022-11-04T13:46:51;23.47;;;10.70;;
19869;SDS011;10097;50.862;4.696;2022-11-04T13:49:31;18.23;;;9.87;;
19869;SDS011;10097;50.862;4.696;2022-11-04T13:52:02;22.23;;;10.97;;
19869;SDS011;10097;50.862;4.696;2022-11-04T13:57:19;22.03;;;11.93;;
19869;SDS011;10097;50.862;4.696;2022-11-04T14:02:56;23.03;;;10.97;;
19869;SDS011;10097;50.862;4.696;2022-11-04T14:10:37;18.60;;;10.00;;
19869;SDS011;10097;50.862;4.696;2022-11-04T14:18:43;22.63;;;10.30;;
19869;SDS011;10097;50.862;4.696;2022-11-04T14:21:11;19.30;;;9.40;;
19869;SDS011;10097;50.862;4.696;2022-11-04T14:23:46;21.23;;;9.70;;
19869;SDS011;10097;50.862;4.696;2022-11-04T14:26:18;20.20;;;9.27;;
19869;SDS011;10097;50.862;4.696;2022-11-04T14:28:47;22.63;;;10.07;;
19869;SDS011;10097;50.862;4.696;2022-11-04T14:31:37;13.87;;;6.63;;
19869;SDS011;10097;50.862;4.696;2022-11-04T14:34:05;15.70;;;6.10;;
19869;SDS011;10097;50.862;4.696;2022-11-04T14:51:25;12.73;;;5.37;;
19869;SDS011;10097;50.862;4.696;2022-11-04T14:54:02;13.63;;;4.80;;
19869;SDS011;10097;50.862;4.696;2022-11-04T14:56:30;11.03;;;4.40;;
19869;SDS011;10097;50.862;4.696;2022-11-04T14:59:00;11.57;;;3.97;;
19869;SDS011;10097;50.862;4.696;2022-11-04T15:01:28;9.63;;;3.07;;
19869;SDS011;10097;50.862;4.696;2022-11-04T15:03:58;9.90;;;3.20;;
19869;SDS011;10097;50.862;4.696;2022-11-04T15:07:00;9.07;;;2.60;;
19869;SDS011;10097;50.862;4.696;2022-11-04T15:09:28;13.57;;;2.60;;
19869;SDS011;10097;50.862;4.696;2022-11-04T15:14:43;6.47;;;2.10;;
19869;SDS011;10097;50.862;4.696;2022-11-04T15:17:09;8.80;;;2.40;;
19869;SDS011;10097;50.862;4.696;2022-11-04T15:19:49;6.60;;;2.00;;
19869;SDS011;10097;50.862;4.696;2022-11-04T15:22:17;6.93;;;1.60;;
19869;SDS011;10097;50.862;4.696;2022-11-04T15:24:43;4.93;;;1.50;;
19869;SDS011;10097;50.862;4.696;2022-11-04T15:27:11;7.93;;;1.60;;
19869;SDS011;10097;50.862;4.696;2022-11-04T15:29:40;8.80;;;2.10;;
19869;SDS011;10097;50.862;4.696;2022-11-04T15:32:16;7.60;;;1.67;;
19869;SDS011;10097;50.862;4.696;2022-11-04T15:34:42;4.93;;;1.10;;
19869;SDS011;10097;50.862;4.696;2022-11-04T15:37:09;7.80;;;1.50;;
19869;SDS011;10097;50.862;4.696;2022-11-04T15:39:40;5.10;;;1.60;;
19869;SDS011;10097;50.862;4.696;2022-11-04T15:42:41;3.97;;;1.50;;
19869;SDS011;10097;50.862;4.696;2022-11-04T15:45:25;6.73;;;1.60;;
19869;SDS011;10097;50.862;4.696;2022-11-04T15:53:31;9.17;;;1.33;;
19869;SDS011;10097;50.862;4.696;2022-11-04T15:56:00;4.93;;;1.30;;
19869;SDS011;10097;50.862;4.696;2022-11-04T15:58:26;7.57;;;1.40;;
19869;SDS011;10097;50.862;4.696;2022-11-04T16:00:53;4.40;;;1.30;;
19869;SDS011;10097;50.862;4.696;2022-11-04T16:03:20;5.10;;;1.73;;
19869;SDS011;10097;50.862;4.696;2022-11-04T16:06:03;9.00;;;1.40;;
19869;SDS011;10097;50.862;4.696;2022-11-04T16:08:31;4.03;;;1.00;;
19869;SDS011;10097;50.862;4.696;2022-11-04T16:11:15;8.97;;;1.70;;
19869;SDS011;10097;50.862;4.696;2022-11-04T16:13:44;4.83;;;1.30;;
19869;SDS011;10097;50.862;4.696;2022-11-04T16:18:52;7.10;;;1.50;;
19869;SDS011;10097;50.862;4.696;2022-11-04T16:21:33;6.00;;;1.70;;
19869;SDS011;10097;50.862;4.696;2022-11-04T16:24:01;6.57;;;1.50;;
19869;SDS011;10097;50.862;4.696;2022-11-04T16:26:28;6.90;;;1.47;;
19869;SDS011;10097;50.862;4.696;2022-11-04T16:28:57;6.73;;;1.93;;
19869;SDS011;10097;50.862;4.696;2022-11-04T16:31:25;6.03;;;1.30;;
19869;SDS011;10097;50.862;4.696;2022-11-04T16:33:56;6.17;;;1.70;;
19869;SDS011;10097;50.862;4.696;2022-11-04T16:36:22;10.37;;;1.77;;
19869;SDS011;10097;50.862;4.696;2022-11-04T16:38:58;8.27;;;1.70;;
19869;SDS011;10097;50.862;4.696;2022-11-04T16:41:28;7.83;;;1.77;;
19869;SDS011;10097;50.862;4.696;2022-11-04T16:43:56;10.70;;;2.33;;
19869;SDS011;10097;50.862;4.696;2022-11-04T16:46:22;7.93;;;2.10;;
19869;SDS011;10097;50.862;4.696;2022-11-04T16:48:48;6.00;;;2.27;;
19869;SDS011;10097;50.862;4.696;2022-11-04T16:51:19;7.77;;;2.00;;
19869;SDS011;10097;50.862;4.696;2022-11-04T16:53:48;8.63;;;1.87;;
19869;SDS011;10097;50.862;4.696;2022-11-04T16:56:23;6.40;;;1.70;;
19869;SDS011;10097;50.862;4.696;2022-11-04T16:59:01;5.80;;;1.20;;
19869;SDS011;10097;50.862;4.696;2022-11-04T17:01:29;9.00;;;1.80;;
19869;SDS011;10097;50.862;4.696;2022-11-04T17:03:56;6.60;;;1.80;;
19869;SDS011;10097;50.862;4.696;2022-11-04T17:06:38;8.23;;;2.00;;
19869;SDS011;10097;50.862;4.696;2022-11-04T17:09:16;5.50;;;1.63;;
19869;SDS011;10097;50.862;4.696;2022-11-04T17:11:48;9.37;;;2.00;;
19869;SDS011;10097;50.862;4.696;2022-11-04T17:14:21;8.80;;;1.73;;
19869;SDS011;10097;50.862;4.696;2022-11-04T17:16:52;5.17;;;2.10;;
19869;SDS011;10097;50.862;4.696;2022-11-04T17:19:27;8.70;;;2.47;;
19869;SDS011;10097;50.862;4.696;2022-11-04T17:21:59;11.50;;;2.50;;
19869;SDS011;10097;50.862;4.696;2022-11-04T17:24:27;8.80;;;1.77;;
19869;SDS011;10097;50.862;4.696;2022-11-04T17:26:55;5.90;;;2.20;;
19869;SDS011;10097;50.862;4.696;2022-11-04T17:29:30;9.97;;;2.83;;
19869;SDS011;10097;50.862;4.696;2022-11-04T17:31:56;9.13;;;3.03;;
19869;SDS011;10097;50.862;4.696;2022-11-04T17:34:22;14.47;;;2.67;;
19869;SDS011;10097;50.862;4.696;2022-11-04T17:36:50;9.80;;;2.70;;
19869;SDS011;10097;50.862;4.696;2022-11-04T17:39:21;10.70;;;2.83;;
19869;SDS011;10097;50.862;4.696;2022-11-04T17:41:49;10.00;;;2.70;;
19869;SDS011;10097;50.862;4.696;2022-11-04T17:44:33;8.33;;;2.70;;
19869;SDS011;10097;50.862;4.696;2022-11-04T17:46:59;9.93;;;2.60;;
19869;SDS011;10097;50.862;4.696;2022-11-04T17:49:25;6.77;;;2.37;;
19869;SDS011;10097;50.862;4.696;2022-11-04T17:51:54;8.03;;;2.93;;
19869;SDS011;10097;50.862;4.696;2022-11-04T17:54:28;11.87;;;3.40;;
19869;SDS011;10097;50.862;4.696;2022-11-04T17:56:55;8.87;;;3.20;;